Time;durP1;ratioP1;P1;durP2;ratioP2;P2;SDS_P1;SDS_P2;PMS_P1;PMS_P2;Temp;Humidity;BMP_temperature;BMP_pressure;BME280_temperature;BME280_humidity;BME280_pressure;Samples;Min_cycle;Max_cycle;Signal;HPM_P1;HPM_P2
2022/11/07 00:03:43;;;;;;;13.7;23.2;;;;;;;7.9;89.2;98850;;;;
2022/11/07 00:13:43;;;;;;;13.7;23.2;;;;;;;8;89.1;98860;;;;
2022/11/07 00:23:43;;;;;;;18;27.4;;;;;;;7.8;88.4;98850;;;;
2022/11/07 00:34:43;;;;;;;18;27.4;;;;;;;7.5;88.1;98850;;;;
2022/11/07 00:45:43;;;;;;;18;27.4;;;;;;;7.2;87.7;98840;;;;
2022/11/07 00:56:43;;;;;;;13.4;22.5;;;;;;;6.9;87.8;98830;;;;
2022/11/07 01:06:44;;;;;;;13.4;22.5;;;;;;;6.7;88;98840;;;;
2022/11/07 01:17:43;;;;;;;13.4;22.5;;;;;;;6.5;88.3;98830;;;;
2022/11/07 01:27:43;;;;;;;10.7;18.1;;;;;;;6.3;88.1;98820;;;;
2022/11/07 01:38:43;;;;;;;10.7;18.1;;;;;;;6;88.5;98820;;;;
2022/11/07 01:49:43;;;;;;;10.7;18.1;;;;;;;5.9;88.8;98800;;;;
2022/11/07 01:59:43;;;;;;;10.2;19;;;;;;;5.9;89.3;98800;;;;
2022/11/07 02:10:43;;;;;;;10.2;19;;;;;;;5.9;89.7;98800;;;;
2022/11/07 02:20:43;;;;;;;10.2;19;;;;;;;6;90;98790;;;;
2022/11/07 02:31:43;;;;;;;10.2;18.5;;;;;;;6.2;90.1;98770;;;;
2022/11/07 02:41:43;;;;;;;10.2;18.5;;;;;;;6.2;89.9;98780;;;;
2022/11/07 02:52:43;;;;;;;9.9;16.9;;;;;;;6.2;89.7;98770;;;;
2022/11/07 03:02:45;;;;;;;9.9;16.9;;;;;;;6.3;89.6;98760;;;;
2022/11/07 03:13:43;;;;;;;9.9;16.9;;;;;;;6.3;89.5;98760;;;;
2022/11/07 03:23:43;;;;;;;9.5;16.1;;;;;;;6.4;89.2;98750;;;;
2022/11/07 03:34:43;;;;;;;9.5;16.1;;;;;;;6.2;88.7;98760;;;;
2022/11/07 03:45:43;;;;;;;9.5;16.1;;;;;;;6;88.4;98770;;;;
2022/11/07 03:56:43;;;;;;;8.7;18.1;;;;;;;6;88.5;98760;;;;
2022/11/07 04:07:43;;;;;;;8.7;18.1;;;;;;;6;89.3;98750;;;;
2022/11/07 04:17:43;;;;;;;8.7;18.1;;;;;;;6.1;89.5;98760;;;;
2022/11/07 04:27:45;;;;;;;9.4;14.7;;;;;;;6.2;89.9;98750;;;;
2022/11/07 04:38:43;;;;;;;9.4;14.7;;;;;;;6.5;90.1;98740;;;;
2022/11/07 04:48:43;;;;;;;9.4;14.7;;;;;;;6.5;90.3;98730;;;;
2022/11/07 04:58:44;;;;;;;8.6;14.9;;;;;;;6.7;90.4;98730;;;;
2022/11/07 05:09:43;;;;;;;8.6;14.9;;;;;;;7;90.6;98730;;;;
2022/11/07 05:20:43;;;;;;;8.6;14.9;;;;;;;7.1;90.6;98710;;;;
2022/11/07 05:30:44;;;;;;;9.3;13;;;;;;;7.2;90.2;98710;;;;
2022/11/07 05:41:43;;;;;;;9.3;13;;;;;;;7.2;90.1;98740;;;;
2022/11/07 05:51:44;;;;;;;13.6;19.2;;;;;;;7.3;90;98760;;;;
2022/11/07 06:02:44;;;;;;;13.6;19.2;;;;;;;7.3;89.9;98780;;;;
2022/11/07 06:13:43;;;;;;;13.6;19.2;;;;;;;7.3;89.4;98790;;;;
2022/11/07 06:24:43;;;;;;;12.9;17.3;;;;;;;7.5;89.4;98800;;;;
2022/11/07 06:34:43;;;;;;;12.9;17.3;;;;;;;7.6;89.3;98810;;;;
2022/11/07 06:45:43;;;;;;;12.9;17.3;;;;;;;7.7;89.1;98820;;;;
2022/11/07 06:56:43;;;;;;;13.5;18.4;;;;;;;8;89;98830;;;;
2022/11/07 07:06:44;;;;;;;13.5;18.4;;;;;;;8.2;88.8;98820;;;;
2022/11/07 07:17:43;;;;;;;13.5;18.4;;;;;;;8.3;88.7;98820;;;;
2022/11/07 07:27:43;;;;;;;12.7;17.7;;;;;;;8.8;88.8;98830;;;;
2022/11/07 07:37:44;;;;;;;12.7;17.7;;;;;;;9;88.6;98820;;;;
2022/11/07 07:47:43;;;;;;;12.7;17.7;;;;;;;9.3;88.2;98810;;;;
2022/11/07 07:58:43;;;;;;;17.4;24;;;;;;;9.6;87.9;98800;;;;
2022/11/07 08:08:43;;;;;;;17.4;24;;;;;;;10.1;87.6;98810;;;;
2022/11/07 08:18:43;;;;;;;17.4;24;;;;;;;10.4;86.7;98810;;;;
2022/11/07 08:29:43;;;;;;;17.2;22.6;;;;;;;10.6;85.2;98810;;;;
2022/11/07 08:39:44;;;;;;;17.2;22.6;;;;;;;11.2;86.2;98810;;;;
2022/11/07 08:50:43;;;;;;;17.2;22.6;;;;;;;12.1;85.4;98810;;;;
2022/11/07 09:01:43;;;;;;;19.3;26.4;;;;;;;12.3;82.4;98830;;;;
2022/11/07 09:11:44;;;;;;;19.3;26.4;;;;;;;12.7;81.7;98830;;;;
2022/11/07 09:21:44;;;;;;;18;25.5;;;;;;;13.1;80.3;98840;;;;
2022/11/07 09:32:44;;;;;;;18;25.5;;;;;;;13.1;77.8;98850;;;;
2022/11/07 09:42:44;;;;;;;18;25.5;;;;;;;13.2;76.2;98860;;;;
2022/11/07 09:53:44;;;;;;;17.3;23.9;;;;;;;13.2;75.2;98860;;;;
2022/11/07 10:04:44;;;;;;;17.3;23.9;;;;;;;13;76.1;98860;;;;
2022/11/07 10:14:44;;;;;;;17.3;23.9;;;;;;;13.4;75.1;98860;;;;
2022/11/07 10:25:44;;;;;;;18.4;27;;;;;;;13.1;73.8;98860;;;;
2022/11/07 10:36:44;;;;;;;18.4;27;;;;;;;12.6;74.1;98860;;;;
2022/11/07 10:46:44;;;;;;;18.4;27;;;;;;;12.5;75;98850;;;;
2022/11/07 10:57:44;;;;;;;14.9;19;;;;;;;12.8;74.5;98860;;;;
2022/11/07 11:08:44;;;;;;;14.9;19;;;;;;;12.7;73.1;98870;;;;
2022/11/07 11:18:44;;;;;;;14.9;19;;;;;;;12.9;72.9;98870;;;;
2022/11/07 11:29:44;;;;;;;9.6;14.4;;;;;;;12.9;70.6;98870;;;;
2022/11/07 11:39:43;;;;;;;9.6;14.4;;;;;;;13.3;70.5;98860;;;;
2022/11/07 11:49:44;;;;;;;9.6;14.4;;;;;;;13.4;69.3;98860;;;;
2022/11/07 12:00:44;;;;;;;7.2;10.1;;;;;;;13.4;68.8;98860;;;;
2022/11/07 12:10:44;;;;;;;7.2;10.1;;;;;;;13.3;68.2;98860;;;;
2022/11/07 12:20:44;;;;;;;7.2;10.1;;;;;;;13.2;68;98850;;;;
2022/11/07 12:31:44;;;;;;;5.3;9.1;;;;;;;13;68;98850;;;;
2022/11/07 12:42:44;;;;;;;5.3;9.1;;;;;;;13.3;67.5;98850;;;;
2022/11/07 12:53:44;;;;;;;4.3;8.8;;;;;;;13.5;66.6;98860;;;;
2022/11/07 13:03:44;;;;;;;4.3;8.8;;;;;;;13.5;66.4;98870;;;;
2022/11/07 13:14:44;;;;;;;4.3;8.8;;;;;;;13.4;66.9;98870;;;;
2022/11/07 13:25:44;;;;;;;3.4;6.5;;;;;;;13.2;66.8;98870;;;;
2022/11/07 13:36:44;;;;;;;3.4;6.5;;;;;;;13;67.3;98880;;;;
2022/11/07 13:46:44;;;;;;;3.4;6.5;;;;;;;12.9;67.5;98880;;;;
2022/11/07 13:57:44;;;;;;;3;7.7;;;;;;;12.7;68.4;98890;;;;
2022/11/07 14:08:44;;;;;;;3;7.7;;;;;;;12.4;69.3;98890;;;;
2022/11/07 14:19:44;;;;;;;3;7.7;;;;;;;12.2;70.1;98910;;;;
2022/11/07 14:30:44;;;;;;;3.8;6.8;;;;;;;12;70.5;98920;;;;
2022/11/07 14:40:44;;;;;;;3.8;6.8;;;;;;;11.8;71;98930;;;;
2022/11/07 14:51:44;;;;;;;3.8;6.6;;;;;;;11.5;71.9;98940;;;;
2022/11/07 15:02:44;;;;;;;3.8;6.6;;;;;;;11.2;72.4;98940;;;;
2022/11/07 15:12:44;;;;;;;3.8;6.6;;;;;;;11;73.1;98940;;;;
2022/11/07 15:23:44;;;;;;;4;8.4;;;;;;;11;73.7;98950;;;;
2022/11/07 15:34:44;;;;;;;4;8.4;;;;;;;11;73.8;98950;;;;
2022/11/07 15:45:44;;;;;;;4;8.4;;;;;;;10.8;74.2;98950;;;;
2022/11/07 15:55:44;;;;;;;6.5;12.5;;;;;;;10.4;74.7;98970;;;;
2022/11/07 16:06:45;;;;;;;6.5;12.5;;;;;;;10.1;75.6;98980;;;;
2022/11/07 16:17:44;;;;;;;6.5;12.5;;;;;;;9.7;76.3;98980;;;;
2022/11/07 16:28:44;;;;;;;6.9;9.1;;;;;;;9.3;76.8;98980;;;;
2022/11/07 16:39:44;;;;;;;6.9;9.1;;;;;;;9;77.9;98990;;;;
2022/11/07 16:49:44;;;;;;;6.9;9.1;;;;;;;8.7;78.4;99000;;;;
2022/11/07 16:59:44;;;;;;;9.7;15.3;;;;;;;8.4;79.1;99000;;;;
2022/11/07 17:09:44;;;;;;;9.7;15.3;;;;;;;8.3;80.4;99000;;;;
2022/11/07 17:20:44;;;;;;;10.9;15.5;;;;;;;8.1;80.5;99010;;;;
2022/11/07 17:30:44;;;;;;;10.9;15.5;;;;;;;8;82.1;99010;;;;
2022/11/07 17:41:44;;;;;;;10.9;15.5;;;;;;;8.1;82.9;99010;;;;
2022/11/07 17:52:44;;;;;;;12;17.9;;;;;;;8.1;82.6;99030;;;;
2022/11/07 18:02:44;;;;;;;12;17.9;;;;;;;8.1;83.2;99020;;;;
2022/11/07 18:12:44;;;;;;;12;17.9;;;;;;;8.1;82.7;99010;;;;
2022/11/07 18:23:44;;;;;;;11.9;17.8;;;;;;;8;83.2;99010;;;;
2022/11/07 18:34:44;;;;;;;11.9;17.8;;;;;;;8.1;82.8;99000;;;;
2022/11/07 18:45:44;;;;;;;11.9;17.8;;;;;;;8.1;82.1;99000;;;;
2022/11/07 18:56:44;;;;;;;11.2;16.9;;;;;;;8.1;81.5;99010;;;;
2022/11/07 19:07:44;;;;;;;11.2;16.9;;;;;;;8.1;81.3;99020;;;;
2022/11/07 19:18:44;;;;;;;11.2;16.9;;;;;;;8;81.2;99030;;;;
2022/11/07 19:28:44;;;;;;;8.2;13.1;;;;;;;7.9;81.1;99050;;;;
2022/11/07 19:39:44;;;;;;;8.2;13.1;;;;;;;7.7;81.5;99040;;;;
2022/11/07 19:49:44;;;;;;;8.2;13.1;;;;;;;7.7;82.3;99030;;;;
2022/11/07 20:00:44;;;;;;;8.4;14.9;;;;;;;8;81.9;99030;;;;
2022/11/07 20:11:44;;;;;;;8.4;14.9;;;;;;;8;81.7;99050;;;;
2022/11/07 20:21:44;;;;;;;6.8;14.3;;;;;;;8.1;81.2;99050;;;;
2022/11/07 20:31:44;;;;;;;6.8;14.3;;;;;;;8;81;99050;;;;
2022/11/07 20:41:44;;;;;;;6.8;14.3;;;;;;;7.9;80.9;99050;;;;
2022/11/07 20:51:44;;;;;;;7.6;12.4;;;;;;;7.7;81;99070;;;;
2022/11/07 21:02:44;;;;;;;7.6;12.4;;;;;;;7.3;81.1;99070;;;;
2022/11/07 21:13:44;;;;;;;7.6;12.4;;;;;;;7.2;82;99080;;;;
2022/11/07 21:23:44;;;;;;;8.5;16.1;;;;;;;7;82.1;99070;;;;
2022/11/07 21:34:45;;;;;;;8.5;16.1;;;;;;;6.8;82.2;99080;;;;
2022/11/07 21:45:44;;;;;;;8.5;16.1;;;;;;;6.6;82.6;99080;;;;
2022/11/07 21:56:44;;;;;;;6.1;10.7;;;;;;;6.4;83;99080;;;;
2022/11/07 22:06:44;;;;;;;6.1;10.7;;;;;;;6.4;83.7;99080;;;;
2022/11/07 22:17:44;;;;;;;6.1;10.7;;;;;;;6.4;84.1;99080;;;;
2022/11/07 22:27:44;;;;;;;4.9;8.5;;;;;;;6.3;84.2;99080;;;;
2022/11/07 22:37:44;;;;;;;4.9;8.5;;;;;;;6.3;84.6;99080;;;;
2022/11/07 22:47:44;;;;;;;4.9;8.5;;;;;;;6.1;84.2;99080;;;;
2022/11/07 22:58:44;;;;;;;5.8;10.2;;;;;;;6;84.4;99080;;;;
2022/11/07 23:08:44;;;;;;;5.8;10.2;;;;;;;6.1;85;99080;;;;
2022/11/07 23:18:44;;;;;;;5.8;10.2;;;;;;;6;85;99070;;;;
2022/11/07 23:29:44;;;;;;;5.8;12.6;;;;;;;5.9;84.7;99070;;;;
2022/11/07 23:40:44;;;;;;;5.8;12.6;;;;;;;5.7;85;99080;;;;
2022/11/07 23:51:16;;;;;;;13;20.8;;;;;;;5.6;85.1;99070;;;;
